Flight Track Log - Related Links

Times and Time Zones

All times are in EST time to prevent confusion due to time zone crossing. See the EJA396 flight status page for this flight to view local times or setup timezone preferences in your user account.

Time Position Orientation Groundspeed Altitude Reporting Facility
EST Latitude Longitude Course Direction KTS MPH feet Rate Location/Type
Thu 03:49:07 PM 36.1150 -115.1581 285° West 229 264 3,800  Level Los Angeles Center
Thu 03:50:08 PM 36.1289 -115.2228 285° West 237 273 6,900 1,672 Climbing Los Angeles Center
Thu 03:51:09 PM 36.0569 -115.2489 196° South 278 320 7,200 1,271 Climbing Los Angeles Center
Thu 03:52:06 PM 35.9878 -115.2644 190° South 278 320 9,400 2,824 Climbing Los Angeles Center
Thu 03:53:08 PM 35.9028 -115.2886 193° South 289 333 12,800 3,290 Climbing Los Angeles Center
Thu 03:54:10 PM 35.8144 -115.3147 193° South 323 372 16,200 3,000 Climbing Los Angeles Center
Thu 03:55:12 PM 35.7131 -115.3056 176° South 341 392 19,000 1,344 Climbing Los Angeles Center
Thu 03:56:15 PM 35.6122 -115.2839 170° South 353 406 19,000  Level Los Angeles Center
Thu 03:57:16 PM 35.5131 -115.2622 170° South 360 414 19,000  Level Los Angeles Center
Thu 03:58:18 PM 35.4169 -115.2389 169° South 356 410 19,000  Level Los Angeles Center
Thu 03:59:20 PM 35.3200 -115.2172 170° South 354 407 19,000 480 Level Los Angeles Center
Thu 04:00:23 PM 35.2242 -115.1964 170° South 352 405 20,000 480 Climbing Los Angeles Center
Thu 04:01:25 PM 35.1039 -115.1892 177° South 368 423 20,000  Level Los Angeles Center
Thu 04:02:27 PM 35.0103 -115.2294 199° South 359 413 20,000  Level Los Angeles Center
Thu 04:03:29 PM 34.9183 -115.2706 200° South 355 409 20,000  Level Los Angeles Center
Thu 04:04:31 PM 34.8281 -115.3078 199° South 347 399 20,000  Level Los Angeles Center
Thu 04:05:33 PM 34.7364 -115.3481 200° South 348 400 20,000  Level Los Angeles Center
Thu 04:06:35 PM 34.6456 -115.3881 200° South 347 399 20,000  Level Los Angeles Center
Thu 04:07:37 PM 34.5542 -115.4289 200° South 349 402 20,000  Level Los Angeles Center
Thu 04:08:40 PM 34.4439 -115.4750 199° South 348 400 20,000 -48 Level Los Angeles Center
Thu 04:09:42 PM 34.3606 -115.5117 200° South 347 399 19,900 -968 Descending Los Angeles Center
Thu 04:10:44 PM 34.2758 -115.5803 214° Southwest 362 417 18,000 -1,984 Descending Los Angeles Center
Thu 04:11:46 PM 34.1847 -115.6853 224° Southwest 378 435 15,800 -2,032 Descending Los Angeles Center
Thu 04:12:48 PM 34.1117 -115.7689 223° Southwest 367 422 13,800 -1,887 Descending Los Angeles Center
Thu 04:13:50 PM 34.0328 -115.8322 214° Southwest 351 404 11,900 -1,355 Descending Los Angeles Center
Thu 04:14:52 PM 33.9567 -115.8944 214° Southwest 340 391 11,000 -432 Descending Los Angeles Center
Thu 04:15:55 PM 33.9006 -115.9753 230° Southwest 338 389 11,000 -528 Level Los Angeles Center
Thu 04:16:57 PM 33.8828 -116.0714 257° West 317 365 9,900 -1,694 Descending Los Angeles Center
Thu 04:17:59 PM 33.8453 -116.1692 245° Southwest 292 336 7,500 -1,403 Descending Los Angeles Center
Thu 04:19:01 PM 33.8028 -116.2347 232° Southwest 265 305 7,000 -290 Descending Los Angeles Center
Thu 04:20:03 PM 33.7619 -116.2947 231° Southwest 249 287 6,900 -242 Descending Los Angeles Center
Thu 04:21:05 PM 33.7464 -116.3525 252° West 233 268 6,500 -1,683 Descending Los Angeles Center
Thu 04:23:12 PM 33.7833 -116.4500 295° West 124 143 1,600 -1,765 Descending Southern California TRACON
Thu 04:24:12 PM 33.8000 -116.4833 301° West 118 136 1,000 -600 Descending Southern California TRACON
Thu 04:26:00 PM 33.8167 -116.5000 301° West  Level FlightAware Approximate
Thu 04:33:00 PM 33.8297 -116.5067 301° West  Level Estimated
Thu 04:34:00 PM 33.8297 -116.5067 301° West  Level Estimated

Login

Don't have an account? Register now (free) for customized features, flight alerts, and more!